Etusivu
METAR-TAF:

METAR-TAF

Lentoasemat :

Munising, Michigan, Yhdysvallat

Leveyspiiri: 46-24N, Pituuspiiri: 086-39W, korkeus merenpinnasta: 187 m

Tämänhetkinen sää

Tämä raportti tehtiin 1 tunti ja 4 minuuttia sitten, kello 21.56 UTC
Tuuli 7 kn pohjoisesta
Lämpötila 22°C
Kosteus 73%
Ilmanpaine 1011 hPa

METAR: KP53 162156Z AUTO 01007KT 22/17 A2985 RMK AO1 SLP105 T02170172

Aika: 19:00 (23:00 UTC)


TAF: puuttuu

Säähavainnot ja -ennusteet yli 4000 lentoasemalta (METAR- ja TAF-raportit).

Käytössä olevat sääasemat on merkitty karttaan keltaisilla ja punaisilla pisteillä.

Aseta hiiri pisteen päälle nähdäksesi sääaseman nimen.

Klikkaa sitten nähdäksesi säähavainnot ja -ennusteet.

Kartan vaihtaminen: klikkaa mustalla rastilla varustettuja vihreitä pisteitä, niin voit zoomata sisään; viivalla varustettua vihreää pistettä, niin voit zoomata ulos tai vihreitä nuolia, niin pääset viereisille kartoille.


METAR-TAF: